createdAt,value
2022-09-20T00:01:23.594Z,9.50
2022-09-20T00:03:53.931Z,9.60
2022-09-20T00:06:21.692Z,9.40
2022-09-20T00:08:48.925Z,9.60
2022-09-20T00:11:19.992Z,9.50
2022-09-20T00:13:47.241Z,9.30
2022-09-20T00:16:15.072Z,9.30
2022-09-20T00:18:42.005Z,9.50
2022-09-20T00:21:12.515Z,9.60
2022-09-20T00:23:39.240Z,9.60
2022-09-20T00:26:06.081Z,9.70
2022-09-20T00:28:34.641Z,9.40
2022-09-20T00:31:01.401Z,9.20
2022-09-20T00:33:46.987Z,9.20
2022-09-20T00:36:13.725Z,9.30
2022-09-20T00:38:40.546Z,9.50
2022-09-20T00:41:07.365Z,9.00
2022-09-20T00:43:37.195Z,8.90
2022-09-20T00:46:04.022Z,9.00
2022-09-20T00:48:30.786Z,9.00
2022-09-20T00:50:59.581Z,9.10
2022-09-20T00:53:30.156Z,9.20
2022-09-20T00:56:01.451Z,9.10
2022-09-20T00:58:28.492Z,9.20
2022-09-20T01:00:55.702Z,9.20
2022-09-20T01:03:22.919Z,9.10
2022-09-20T01:05:53.064Z,9.10
2022-09-20T01:08:20.020Z,9.10
2022-09-20T01:10:47.194Z,8.90
2022-09-20T01:13:13.924Z,9.00
2022-09-20T01:15:40.709Z,9.00
2022-09-20T01:18:07.461Z,9.10
2022-09-20T01:20:36.018Z,9.10
2022-09-20T01:23:21.066Z,9.10
2022-09-20T01:26:06.198Z,9.20
2022-09-20T01:28:32.996Z,9.10
2022-09-20T01:31:11.739Z,9.10
2022-09-20T01:33:46.365Z,9.20
2022-09-20T01:36:14.310Z,9.20
2022-09-20T01:38:41.071Z,9.10
2022-09-20T01:41:11.201Z,9.20
2022-09-20T01:43:41.804Z,9.40
2022-09-20T01:46:16.772Z,9.30
2022-09-20T01:48:43.575Z,9.20
2022-09-20T01:51:16.278Z,9.00
2022-09-20T01:53:54.778Z,8.80
2022-09-20T01:56:36.717Z,8.80
2022-09-20T01:59:24.608Z,8.80
2022-09-20T02:02:07.103Z,9.00
2022-09-20T02:04:33.926Z,9.00
2022-09-20T02:07:00.642Z,8.90
2022-09-20T02:10:03.079Z,8.90
2022-09-20T02:13:01.833Z,9.00
2022-09-20T02:15:34.093Z,8.80
2022-09-20T02:18:04.169Z,8.40
2022-09-20T02:20:37.102Z,8.70
2022-09-20T02:23:03.879Z,8.70
2022-09-20T02:25:33.451Z,8.60
2022-09-20T02:28:03.221Z,8.80
2022-09-20T02:30:53.302Z,8.90
2022-09-20T02:33:55.904Z,9.00
2022-09-20T02:36:22.639Z,8.80
2022-09-20T02:39:08.086Z,8.70
2022-09-20T02:41:53.887Z,8.70
2022-09-20T02:44:34.549Z,8.70
2022-09-20T02:47:01.262Z,8.70
2022-09-20T02:49:48.101Z,8.60
2022-09-20T02:52:25.874Z,8.60
2022-09-20T02:55:10.820Z,8.50
2022-09-20T02:57:43.411Z,8.70
2022-09-20T03:00:14.936Z,8.70
2022-09-20T03:02:52.183Z,8.50
2022-09-20T03:05:21.640Z,8.60
2022-09-20T03:07:54.855Z,8.30
2022-09-20T03:10:36.927Z,8.30
2022-09-20T03:13:10.656Z,8.00
2022-09-20T03:15:46.694Z,8.40
2022-09-20T03:18:33.841Z,8.30
2022-09-20T03:21:22.733Z,8.30
2022-09-20T03:23:49.534Z,8.50
2022-09-20T03:26:19.272Z,8.40
2022-09-20T03:29:00.395Z,8.30
2022-09-20T03:31:27.239Z,8.50
2022-09-20T03:34:09.382Z,8.40
2022-09-20T03:36:54.717Z,7.90
2022-09-20T03:39:48.392Z,7.90
2022-09-20T03:42:23.085Z,7.90
2022-09-20T03:44:56.070Z,7.90
2022-09-20T03:47:42.944Z,8.20
2022-09-20T03:50:15.530Z,8.30
2022-09-20T03:52:47.238Z,8.30
2022-09-20T03:55:23.188Z,8.30
2022-09-20T03:57:52.266Z,8.30
2022-09-20T04:00:38.675Z,8.20
2022-09-20T04:03:26.783Z,8.10
2022-09-20T04:05:53.574Z,7.80
2022-09-20T04:08:40.645Z,7.90
2022-09-20T04:11:41.002Z,8.10
2022-09-20T04:14:18.385Z,8.20
2022-09-20T04:17:00.704Z,8.20
2022-09-20T04:19:35.894Z,7.90
2022-09-20T04:22:03.295Z,7.90
2022-09-20T04:24:33.385Z,8.10
2022-09-20T04:27:09.894Z,7.80
2022-09-20T04:29:38.206Z,8.00
2022-09-20T04:32:15.935Z,8.10
2022-09-20T04:35:08.511Z,8.10
2022-09-20T04:37:36.166Z,8.20
2022-09-20T04:40:06.156Z,7.60
2022-09-20T04:42:38.964Z,7.70
2022-09-20T04:45:08.795Z,8.00
2022-09-20T04:47:37.317Z,7.60
2022-09-20T04:50:19.452Z,7.80
2022-09-20T04:52:46.193Z,7.90
2022-09-20T04:55:39.065Z,8.20
2022-09-20T04:58:24.635Z,8.30
2022-09-20T05:00:57.566Z,8.40
2022-09-20T05:03:31.623Z,8.50
2022-09-20T05:06:07.528Z,8.50
2022-09-20T05:08:43.370Z,8.40
2022-09-20T05:11:27.712Z,8.30
2022-09-20T05:17:08.573Z,8.40
2022-09-20T05:19:38.122Z,8.30
2022-09-20T05:22:24.207Z,8.50
2022-09-20T05:25:00.194Z,8.40
2022-09-20T05:27:38.782Z,8.30
2022-09-20T05:30:08.964Z,8.20
2022-09-20T05:32:52.119Z,8.70
2022-09-20T05:35:20.865Z,8.90
2022-09-20T05:37:54.369Z,9.00
2022-09-20T05:40:30.304Z,9.30
2022-09-20T05:43:03.936Z,9.50
2022-09-20T05:45:49.230Z,9.60
2022-09-20T05:48:18.311Z,9.60
2022-09-20T05:50:55.441Z,9.80
2022-09-20T05:53:25.766Z,9.80
2022-09-20T05:56:11.505Z,9.80
2022-09-20T05:58:58.217Z,9.90
2022-09-20T06:01:41.458Z,10.10
2022-09-20T06:04:20.484Z,10.30
2022-09-20T06:06:47.242Z,10.20
2022-09-20T06:09:26.248Z,10.20
2022-09-20T06:11:53.071Z,10.00
2022-09-20T06:14:38.825Z,10.10
2022-09-20T06:17:10.782Z,10.30
2022-09-20T06:19:47.841Z,10.30
2022-09-20T06:22:15.289Z,10.60
2022-09-20T06:24:47.713Z,10.60
2022-09-20T06:27:16.043Z,10.80
2022-09-20T06:29:43.932Z,10.90
2022-09-20T06:32:10.690Z,10.90
2022-09-20T06:34:37.439Z,10.90
2022-09-20T06:37:41.944Z,10.60
2022-09-20T06:40:27.951Z,11.10
2022-09-20T06:42:55.455Z,11.30
2022-09-20T06:45:22.950Z,11.50
2022-09-20T06:47:53.133Z,11.70
2022-09-20T06:50:20.635Z,12.10
2022-09-20T06:52:47.592Z,12.30
2022-09-20T06:55:19.092Z,12.40
2022-09-20T06:57:46.063Z,12.40
2022-09-20T07:00:16.119Z,12.50
2022-09-20T07:02:43.624Z,12.30
2022-09-20T07:05:16.600Z,12.30
2022-09-20T07:07:44.284Z,12.30
2022-09-20T07:10:11.708Z,12.60
2022-09-20T07:12:38.525Z,12.60
2022-09-20T07:15:06.323Z,12.60
2022-09-20T07:17:33.923Z,12.60
2022-09-20T07:20:00.807Z,12.60
2022-09-20T07:22:28.270Z,12.40
2022-09-20T07:24:55.320Z,12.40
2022-09-20T07:27:22.211Z,12.70
2022-09-20T07:29:49.599Z,12.80
2022-09-20T07:32:17.258Z,13.20
2022-09-20T07:34:47.309Z,13.40
2022-09-20T07:37:14.487Z,13.50
2022-09-20T07:39:41.914Z,13.80
2022-09-20T07:42:08.720Z,13.40
2022-09-20T07:44:35.481Z,13.70
2022-09-20T07:47:02.232Z,13.90
2022-09-20T07:49:31.909Z,14.10
2022-09-20T07:51:58.714Z,13.90
2022-09-20T07:54:28.360Z,14.20
2022-09-20T07:56:55.175Z,14.70
2022-09-20T07:59:21.903Z,14.20
2022-09-20T08:01:48.877Z,14.50
2022-09-20T08:08:00.947Z,15.30
2022-09-20T08:11:00.615Z,15.30
2022-09-20T08:14:41.918Z,15.40
2022-09-20T08:20:53.324Z,15.80
2022-09-20T08:23:32.116Z,16.10
2022-09-20T08:30:10.665Z,16.10
2022-09-20T08:32:55.649Z,15.90
2022-09-20T08:36:47.993Z,16.00
2022-09-20T08:49:11.710Z,16.90
2022-09-20T08:51:41.839Z,17.50
2022-09-20T08:54:34.972Z,17.60
2022-09-20T08:57:22.963Z,17.70
2022-09-20T09:05:55.914Z,18.10
2022-09-20T09:19:12.219Z,20.40
2022-09-20T09:24:16.968Z,22.10
2022-09-20T09:26:50.433Z,22.90
2022-09-20T09:29:20.438Z,23.20
2022-09-20T09:34:38.903Z,23.20
2022-09-20T09:37:05.823Z,23.50
2022-09-20T09:39:40.747Z,24.00
2022-09-20T09:42:20.716Z,25.70
2022-09-20T09:45:00.452Z,26.70
2022-09-20T09:47:31.394Z,25.70
2022-09-20T09:50:01.902Z,25.90
2022-09-20T09:56:01.594Z,24.80
2022-09-20T09:58:54.979Z,23.40
2022-09-20T10:01:42.064Z,23.90
2022-09-20T10:04:17.081Z,24.40
2022-09-20T10:06:50.530Z,25.20
2022-09-20T10:09:21.975Z,23.50
2022-09-20T10:11:58.807Z,24.00
2022-09-20T10:14:25.640Z,25.70
2022-09-20T10:17:01.469Z,27.00
2022-09-20T10:19:43.563Z,27.50
2022-09-20T10:22:24.165Z,27.10
2022-09-20T10:25:00.188Z,27.00
2022-09-20T10:27:29.755Z,27.80
2022-09-20T10:29:59.283Z,27.50
2022-09-20T10:32:27.280Z,28.40
2022-09-20T10:35:02.042Z,29.00
2022-09-20T10:37:31.093Z,28.10
2022-09-20T10:40:11.479Z,26.40
2022-09-20T10:43:16.769Z,26.90
2022-09-20T10:48:48.859Z,27.50
2022-09-20T10:51:27.619Z,28.40
2022-09-20T10:54:08.043Z,28.40
2022-09-20T10:56:39.165Z,28.00
2022-09-20T10:59:16.341Z,27.00
2022-09-20T11:02:08.667Z,27.70
2022-09-20T11:04:38.330Z,27.70
2022-09-20T11:07:23.516Z,27.40
2022-09-20T11:09:55.371Z,27.50
2022-09-20T11:12:31.323Z,27.90
2022-09-20T11:15:11.112Z,28.00
2022-09-20T11:17:47.686Z,28.40
2022-09-20T11:20:45.226Z,29.30
2022-09-20T11:23:28.924Z,30.10
2022-09-20T11:25:57.173Z,28.90
2022-09-20T11:28:40.191Z,28.60
2022-09-20T11:31:48.665Z,27.00
2022-09-20T11:34:24.033Z,26.20
2022-09-20T11:36:59.059Z,27.80
2022-09-20T11:39:29.222Z,28.90
2022-09-20T11:41:56.471Z,30.60
2022-09-20T11:44:23.186Z,30.60
2022-09-20T11:46:50.481Z,30.20
2022-09-20T11:49:21.340Z,30.80
2022-09-20T11:52:06.975Z,30.80
2022-09-20T11:54:39.750Z,29.50
2022-09-20T11:57:08.140Z,26.20
2022-09-20T11:59:35.549Z,26.40
2022-09-20T12:02:03.483Z,26.50
2022-09-20T12:04:33.703Z,27.30
2022-09-20T12:07:03.514Z,26.80
2022-09-20T12:09:35.423Z,25.90
2022-09-20T12:12:22.454Z,28.10
2022-09-20T12:14:55.475Z,29.00
2022-09-20T12:17:48.458Z,29.60
2022-09-20T12:20:35.449Z,29.60
2022-09-20T12:23:21.406Z,30.10
2022-09-20T12:26:00.875Z,29.70
2022-09-20T12:28:44.059Z,29.40
2022-09-20T12:31:37.969Z,29.00
2022-09-20T12:34:04.746Z,29.60
2022-09-20T12:36:36.336Z,32.10
2022-09-20T12:39:06.901Z,31.00
2022-09-20T12:41:52.618Z,32.00
2022-09-20T12:44:38.071Z,33.90
2022-09-20T12:47:04.983Z,33.60
2022-09-20T12:50:02.869Z,33.40
2022-09-20T12:52:48.887Z,33.60
2022-09-20T12:55:30.916Z,32.00
2022-09-20T12:58:03.589Z,32.30
2022-09-20T13:00:32.090Z,30.60
2022-09-20T13:02:59.660Z,29.40
2022-09-20T13:05:32.203Z,28.10
2022-09-20T13:08:20.462Z,27.00
2022-09-20T13:10:50.067Z,25.70
2022-09-20T13:13:27.911Z,24.80
2022-09-20T13:15:55.097Z,22.90
2022-09-20T13:18:23.046Z,21.90
2022-09-20T13:20:51.832Z,22.00
2022-09-20T13:23:28.155Z,21.60
2022-09-20T13:25:57.702Z,21.60
2022-09-20T13:28:24.430Z,21.40
2022-09-20T13:30:51.246Z,21.00
2022-09-20T13:33:22.118Z,20.70
2022-09-20T13:35:50.004Z,20.40
2022-09-20T13:38:22.563Z,20.70
2022-09-20T13:40:49.355Z,20.80
2022-09-20T13:43:34.605Z,21.00
2022-09-20T13:46:11.355Z,20.70
2022-09-20T13:48:38.201Z,20.90
2022-09-20T13:51:14.388Z,20.60
2022-09-20T13:53:42.250Z,21.20
2022-09-20T13:56:10.488Z,21.20
2022-09-20T13:58:40.232Z,21.40
2022-09-20T14:01:09.568Z,21.50
2022-09-20T14:03:36.375Z,21.30
2022-09-20T14:06:04.454Z,21.50
2022-09-20T14:08:31.950Z,21.20
2022-09-20T14:11:17.244Z,21.20
2022-09-20T14:13:44.565Z,21.40
2022-09-20T14:16:11.342Z,21.50
2022-09-20T14:18:39.239Z,21.40
2022-09-20T14:21:06.244Z,21.40
2022-09-20T14:23:33.006Z,21.50
2022-09-20T14:26:18.300Z,21.20
2022-09-20T14:28:45.091Z,20.40
2022-09-20T14:31:15.901Z,20.20
2022-09-20T14:33:43.719Z,20.10
2022-09-20T14:36:12.899Z,20.60
2022-09-20T14:38:39.678Z,20.80
2022-09-20T14:41:06.422Z,20.40
2022-09-20T14:43:33.931Z,20.40
2022-09-20T14:46:02.082Z,19.90
2022-09-20T14:48:33.059Z,20.00
2022-09-20T14:51:18.881Z,19.90
2022-09-20T14:53:46.878Z,19.70
2022-09-20T14:56:14.831Z,19.70
2022-09-20T14:59:00.349Z,19.80
2022-09-20T15:01:27.337Z,19.90
2022-09-20T15:03:54.056Z,20.00
2022-09-20T15:06:20.764Z,19.90
2022-09-20T15:08:47.826Z,19.70
2022-09-20T15:11:15.140Z,19.60
2022-09-20T15:13:42.161Z,19.30
2022-09-20T15:16:09.286Z,19.10
2022-09-20T15:18:37.579Z,19.20
2022-09-20T15:21:06.215Z,19.30
2022-09-20T15:23:33.130Z,19.10
2022-09-20T15:26:00.999Z,18.90
2022-09-20T15:28:28.288Z,19.00
2022-09-20T15:30:55.210Z,19.20
2022-09-20T15:33:22.345Z,19.50
2022-09-20T15:35:49.279Z,19.70
2022-09-20T15:38:16.763Z,19.40
2022-09-20T15:40:44.308Z,19.30
2022-09-20T15:43:12.003Z,19.40
2022-09-20T15:45:49.773Z,19.80
2022-09-20T15:48:21.096Z,19.70
2022-09-20T15:51:07.245Z,19.60
2022-09-20T15:53:39.705Z,19.40
2022-09-20T15:56:21.285Z,19.00
2022-09-20T15:58:48.859Z,18.90
2022-09-20T16:01:16.962Z,18.70
2022-09-20T16:03:45.507Z,18.60
2022-09-20T16:06:13.608Z,18.50
2022-09-20T16:08:41.382Z,18.40
2022-09-20T16:11:08.737Z,18.70
2022-09-20T16:13:39.412Z,18.70
2022-09-20T16:16:07.767Z,18.70
2022-09-20T16:18:54.348Z,18.90
2022-09-20T16:21:21.546Z,18.90
2022-09-20T16:23:49.518Z,18.80
2022-09-20T16:26:16.780Z,18.70
2022-09-20T16:28:47.291Z,18.50
2022-09-20T16:31:34.829Z,18.50
2022-09-20T16:34:02.662Z,18.40
2022-09-20T16:36:29.941Z,18.30
2022-09-20T16:38:57.327Z,18.20
2022-09-20T16:41:25.601Z,17.90
2022-09-20T16:43:52.556Z,17.80
2022-09-20T16:46:22.812Z,17.80
2022-09-20T16:48:53.930Z,17.50
2022-09-20T16:51:22.654Z,17.40
2022-09-20T16:53:49.975Z,17.50
2022-09-20T16:56:21.860Z,17.50
2022-09-20T16:58:48.850Z,17.40
2022-09-20T17:01:16.807Z,17.30
2022-09-20T17:03:44.908Z,17.40
2022-09-20T17:06:11.848Z,17.40
2022-09-20T17:08:40.038Z,17.30
2022-09-20T17:11:08.510Z,17.20
2022-09-20T17:13:35.875Z,17.30
2022-09-20T17:16:03.109Z,17.40
2022-09-20T17:18:29.907Z,17.30
2022-09-20T17:20:56.648Z,17.20
2022-09-20T17:23:23.825Z,17.10
2022-09-20T17:26:00.872Z,17.10
2022-09-20T17:28:27.603Z,16.80
2022-09-20T17:31:00.531Z,16.70
2022-09-20T17:33:29.814Z,16.80
2022-09-20T17:35:58.998Z,16.80
2022-09-20T17:38:26.157Z,16.60
2022-09-20T17:41:08.638Z,16.60
2022-09-20T17:43:35.879Z,16.50
2022-09-20T17:46:08.948Z,16.40
2022-09-20T17:48:36.600Z,16.60
2022-09-20T17:51:03.622Z,16.40
2022-09-20T17:53:33.507Z,16.50
2022-09-20T17:56:00.738Z,16.40
2022-09-20T17:58:27.593Z,16.30
2022-09-20T18:00:58.633Z,16.30
2022-09-20T18:03:25.462Z,16.20
2022-09-20T18:05:52.312Z,16.00
2022-09-20T18:08:19.184Z,16.00
2022-09-20T18:10:55.960Z,16.00
2022-09-20T18:13:22.972Z,15.90
2022-09-20T18:15:49.769Z,16.00
2022-09-20T18:18:16.657Z,16.00
2022-09-20T18:20:43.397Z,15.90
2022-09-20T18:23:10.167Z,15.80
2022-09-20T18:25:56.861Z,15.70
2022-09-20T18:28:23.728Z,15.60
2022-09-20T18:31:00.606Z,15.10
2022-09-20T18:33:28.009Z,15.00
2022-09-20T18:35:59.432Z,14.90
2022-09-20T18:38:26.173Z,15.00
2022-09-20T18:41:00.435Z,14.90
2022-09-20T18:43:28.386Z,14.80
2022-09-20T18:45:55.229Z,14.80
2022-09-20T18:48:24.884Z,15.00
2022-09-20T18:50:58.444Z,14.80
2022-09-20T18:53:26.235Z,14.70
2022-09-20T18:55:53.665Z,14.30
2022-09-20T18:58:20.954Z,14.40
2022-09-20T19:00:48.874Z,14.60
2022-09-20T19:03:22.057Z,14.50
2022-09-20T19:05:49.674Z,14.40
2022-09-20T19:08:34.264Z,14.70
2022-09-20T19:11:02.152Z,14.50
2022-09-20T19:13:32.517Z,14.30
2022-09-20T19:16:18.348Z,14.20
2022-09-20T19:18:51.204Z,14.20
2022-09-20T19:21:22.255Z,14.10
2022-09-20T19:23:49.135Z,13.80
2022-09-20T19:26:21.335Z,13.60
2022-09-20T19:28:52.177Z,13.50
2022-09-20T19:31:23.226Z,13.60
2022-09-20T19:33:50.681Z,14.00
2022-09-20T19:36:17.781Z,14.30
2022-09-20T19:38:53.427Z,14.20
2022-09-20T19:41:32.439Z,14.40
2022-09-20T19:43:59.680Z,14.30
2022-09-20T19:46:32.489Z,14.40
2022-09-20T19:49:00.258Z,14.40
2022-09-20T19:51:26.990Z,14.10
2022-09-20T19:53:55.454Z,14.00
2022-09-20T19:56:26.138Z,13.70
2022-09-20T19:58:53.392Z,13.70
2022-09-20T20:01:22.298Z,13.70
2022-09-20T20:03:49.921Z,14.00
2022-09-20T20:06:19.770Z,14.00
2022-09-20T20:08:50.764Z,14.00
2022-09-20T20:11:18.361Z,14.10
2022-09-20T20:14:04.847Z,14.10
2022-09-20T20:16:47.157Z,14.00
2022-09-20T20:19:30.203Z,14.20
2022-09-20T20:21:58.481Z,14.20
2022-09-20T20:24:26.134Z,14.30
2022-09-20T20:26:52.881Z,14.30
2022-09-20T20:29:19.824Z,14.10
2022-09-20T20:31:46.594Z,14.20
2022-09-20T20:34:16.292Z,14.40
2022-09-20T20:36:44.024Z,14.40
2022-09-20T20:39:11.287Z,14.40
2022-09-20T20:41:39.461Z,14.40
2022-09-20T20:44:06.385Z,14.50
2022-09-20T20:46:34.194Z,14.50
2022-09-20T20:49:01.214Z,14.50
2022-09-20T20:51:28.184Z,14.50
2022-09-20T20:53:54.988Z,14.30
2022-09-20T20:56:22.660Z,14.30
2022-09-20T20:58:49.505Z,14.30
2022-09-20T21:01:17.130Z,14.20
2022-09-20T21:03:46.460Z,14.30
2022-09-20T21:06:13.315Z,14.40
2022-09-20T21:08:40.544Z,14.50
2022-09-20T21:11:08.637Z,14.40
2022-09-20T21:13:35.451Z,14.50
2022-09-20T21:16:03.227Z,14.00
2022-09-20T21:18:29.988Z,13.60
2022-09-20T21:20:56.722Z,13.40
2022-09-20T21:23:23.498Z,13.30
2022-09-20T21:26:00.451Z,13.10
2022-09-20T21:28:27.339Z,13.30
2022-09-20T21:30:59.495Z,13.30
2022-09-20T21:33:33.143Z,13.00
2022-09-20T21:36:02.784Z,13.30
2022-09-20T21:38:29.723Z,13.20
2022-09-20T21:41:04.065Z,13.50
2022-09-20T21:43:30.936Z,13.40
2022-09-20T21:45:58.458Z,13.40
2022-09-20T21:48:26.162Z,13.50
2022-09-20T21:50:53.036Z,13.40
2022-09-20T21:53:19.841Z,13.30
2022-09-20T21:55:46.625Z,13.30
2022-09-20T21:58:13.631Z,13.30
2022-09-20T22:00:40.425Z,13.30
2022-09-20T22:03:07.844Z,13.40
2022-09-20T22:05:34.740Z,13.40
2022-09-20T22:08:02.492Z,13.40
2022-09-20T22:10:29.344Z,13.40
2022-09-20T22:12:56.191Z,13.30
2022-09-20T22:15:22.941Z,13.10
2022-09-20T22:17:49.684Z,13.10
2022-09-20T22:20:16.506Z,12.90
2022-09-20T22:22:43.271Z,12.90
2022-09-20T22:25:10.000Z,12.90
2022-09-20T22:27:36.769Z,12.90
2022-09-20T22:30:05.051Z,13.10
2022-09-20T22:32:32.059Z,13.00
2022-09-20T22:35:00.039Z,12.70
2022-09-20T22:37:26.772Z,12.70
2022-09-20T22:39:53.482Z,12.90
2022-09-20T22:42:20.242Z,12.70
2022-09-20T22:44:47.031Z,12.60
2022-09-20T22:47:13.743Z,12.40
2022-09-20T22:49:40.460Z,12.30
2022-09-20T22:52:07.578Z,12.30
2022-09-20T22:54:35.664Z,12.10
2022-09-20T22:57:02.489Z,12.00
2022-09-20T22:59:29.206Z,12.00
2022-09-20T23:01:55.961Z,12.00
2022-09-20T23:04:23.580Z,12.20
2022-09-20T23:06:56.816Z,12.50
2022-09-20T23:09:24.285Z,12.70
2022-09-20T23:11:51.108Z,12.70
2022-09-20T23:14:18.815Z,12.70
2022-09-20T23:16:45.555Z,12.60
2022-09-20T23:19:12.412Z,12.40
2022-09-20T23:21:39.456Z,12.40
2022-09-20T23:24:07.146Z,12.10
2022-09-20T23:26:34.686Z,12.40
2022-09-20T23:29:05.305Z,12.50
2022-09-20T23:31:32.306Z,12.30
2022-09-20T23:33:59.688Z,12.00
2022-09-20T23:36:27.369Z,12.10
2022-09-20T23:38:54.287Z,12.10
2022-09-20T23:41:21.506Z,12.20
2022-09-20T23:43:48.347Z,12.30
2022-09-20T23:46:16.106Z,12.30
2022-09-20T23:48:42.964Z,12.10
2022-09-20T23:51:10.482Z,11.90
2022-09-20T23:53:37.203Z,12.00
2022-09-20T23:56:04.627Z,12.30
2022-09-20T23:58:31.352Z,12.40
